createdAt,value
2018-12-10T00:01:47.808Z,6.09
2018-12-10T00:04:17.060Z,5.86
2018-12-10T00:06:47.031Z,5.95
2018-12-10T00:09:14.290Z,5.88
2018-12-10T00:11:41.683Z,5.96
2018-12-10T00:14:09.005Z,5.96
2018-12-10T00:16:36.260Z,5.90
2018-12-10T00:19:03.629Z,5.88
2018-12-10T00:21:30.953Z,5.97
2018-12-10T00:23:58.232Z,5.90
2018-12-10T00:26:25.955Z,5.74
2018-12-10T00:28:53.646Z,5.85
2018-12-10T00:31:20.916Z,5.92
2018-12-10T00:33:48.169Z,5.84
2018-12-10T00:36:15.428Z,5.80
2018-12-10T00:38:42.785Z,5.90
2018-12-10T00:41:10.028Z,5.99
2018-12-10T00:43:38.644Z,5.98
2018-12-10T00:46:05.948Z,5.96
2018-12-10T00:48:33.171Z,5.91
2018-12-10T00:51:00.452Z,5.87
2018-12-10T00:53:27.715Z,5.86
2018-12-10T00:55:55.041Z,5.90
2018-12-10T00:58:22.312Z,5.82
2018-12-10T01:00:49.589Z,5.86
2018-12-10T01:03:16.810Z,5.82
2018-12-10T01:05:44.054Z,5.81
2018-12-10T01:08:11.298Z,5.72
2018-12-10T01:10:38.532Z,5.66
2018-12-10T01:13:05.884Z,5.58
2018-12-10T01:15:33.120Z,5.53
2018-12-10T01:18:00.468Z,5.59
2018-12-10T01:20:27.708Z,5.68
2018-12-10T01:22:54.969Z,5.66
2018-12-10T01:25:22.220Z,5.66
2018-12-10T01:27:49.448Z,5.68
2018-12-10T01:30:16.684Z,5.78
2018-12-10T01:32:43.945Z,5.89
2018-12-10T01:35:11.321Z,5.91
2018-12-10T01:37:38.565Z,5.92
2018-12-10T01:40:06.145Z,5.85
2018-12-10T01:42:33.388Z,5.85
2018-12-10T01:45:00.637Z,5.31
2018-12-10T01:47:27.889Z,5.38
2018-12-10T01:49:55.152Z,5.54
2018-12-10T01:52:22.396Z,5.40
2018-12-10T01:54:49.688Z,5.43
2018-12-10T01:57:16.934Z,5.43
2018-12-10T01:59:44.301Z,5.41
2018-12-10T02:02:11.678Z,5.31
2018-12-10T02:04:38.988Z,5.31
2018-12-10T02:07:06.220Z,5.36
2018-12-10T02:09:33.642Z,5.34
2018-12-10T02:12:00.892Z,5.31
2018-12-10T02:14:28.129Z,5.46
2018-12-10T02:16:55.537Z,5.24
2018-12-10T02:19:22.807Z,5.37
2018-12-10T02:21:50.101Z,5.20
2018-12-10T02:24:17.372Z,5.11
2018-12-10T02:26:45.728Z,5.16
2018-12-10T02:29:13.120Z,5.15
2018-12-10T02:31:40.709Z,5.05
2018-12-10T02:34:07.958Z,5.12
2018-12-10T02:36:36.340Z,5.08
2018-12-10T02:39:05.328Z,5.07
2018-12-10T02:41:34.593Z,5.08
2018-12-10T02:44:02.148Z,5.14
2018-12-10T02:46:29.524Z,5.22
2018-12-10T02:48:57.364Z,5.18
2018-12-10T02:51:24.753Z,5.25
2018-12-10T02:53:52.097Z,5.20
2018-12-10T02:56:20.358Z,5.18
2018-12-10T02:58:47.616Z,5.25
2018-12-10T03:01:14.844Z,5.19
2018-12-10T03:03:42.188Z,5.27
2018-12-10T03:06:09.756Z,5.22
2018-12-10T03:08:37.009Z,5.35
2018-12-10T03:11:04.255Z,5.16
2018-12-10T03:13:31.618Z,5.20
2018-12-10T03:15:58.870Z,5.19
2018-12-10T03:18:26.512Z,5.21
2018-12-10T03:20:53.764Z,5.29
2018-12-10T03:23:20.982Z,5.30
2018-12-10T03:25:48.209Z,5.26
2018-12-10T03:28:15.443Z,5.26
2018-12-10T03:30:42.793Z,5.32
2018-12-10T03:33:10.109Z,5.40
2018-12-10T03:35:37.571Z,5.49
2018-12-10T03:38:05.836Z,5.38
2018-12-10T03:40:33.296Z,5.38
2018-12-10T03:43:00.617Z,5.39
2018-12-10T03:45:27.833Z,5.43
2018-12-10T03:47:55.054Z,5.40
2018-12-10T03:50:22.284Z,5.43
2018-12-10T03:52:49.620Z,5.48
2018-12-10T03:55:16.832Z,5.49
2018-12-10T03:57:44.039Z,5.41
2018-12-10T04:00:11.272Z,5.28
2018-12-10T04:02:39.096Z,5.30
2018-12-10T04:05:06.367Z,5.27
2018-12-10T04:07:33.680Z,5.25
2018-12-10T04:10:00.912Z,5.28
2018-12-10T04:12:28.159Z,5.16
2018-12-10T04:14:55.365Z,5.27
2018-12-10T04:17:22.612Z,5.27
2018-12-10T04:19:49.829Z,5.19
2018-12-10T04:22:17.061Z,5.33
2018-12-10T04:24:45.715Z,5.46
2018-12-10T04:27:13.198Z,5.53
2018-12-10T04:29:40.585Z,5.52
2018-12-10T04:32:07.855Z,5.38
2018-12-10T04:34:36.208Z,5.36
2018-12-10T04:37:03.571Z,5.39
2018-12-10T04:39:30.838Z,5.38
2018-12-10T04:41:58.116Z,5.28
2018-12-10T04:44:27.028Z,5.25
2018-12-10T04:46:55.361Z,5.31
2018-12-10T04:49:22.567Z,5.38
2018-12-10T04:51:49.792Z,5.35
2018-12-10T04:54:16.997Z,5.30
2018-12-10T04:56:44.233Z,5.42
2018-12-10T04:59:11.448Z,5.22
2018-12-10T05:01:38.720Z,5.29
2018-12-10T05:04:06.044Z,5.30
2018-12-10T05:06:33.285Z,5.26
2018-12-10T05:09:00.516Z,5.35
2018-12-10T05:11:27.757Z,5.42
2018-12-10T05:13:54.996Z,5.36
2018-12-10T05:16:22.257Z,5.34
2018-12-10T05:18:49.607Z,5.31
2018-12-10T05:21:16.806Z,5.51
2018-12-10T05:23:44.044Z,5.43
2018-12-10T05:26:11.277Z,5.45
2018-12-10T05:28:38.524Z,5.42
2018-12-10T05:31:05.852Z,5.45
2018-12-10T05:33:33.087Z,5.37
2018-12-10T05:36:00.297Z,5.35
2018-12-10T05:38:28.548Z,5.35
2018-12-10T05:40:55.784Z,5.39
2018-12-10T05:43:23.012Z,5.40
2018-12-10T05:45:52.244Z,5.46
2018-12-10T05:48:20.569Z,5.31
2018-12-10T05:50:47.842Z,5.45
2018-12-10T05:53:16.285Z,5.34
2018-12-10T05:55:43.621Z,5.38
2018-12-10T05:58:11.013Z,5.41
2018-12-10T06:00:38.232Z,5.58
2018-12-10T06:03:05.460Z,5.52
2018-12-10T06:05:32.865Z,5.56
2018-12-10T06:08:00.079Z,5.37
2018-12-10T06:10:27.351Z,5.47
2018-12-10T06:12:54.565Z,5.38
2018-12-10T06:15:21.812Z,5.28
2018-12-10T06:17:49.024Z,5.51
2018-12-10T06:20:16.257Z,5.49
2018-12-10T06:22:43.469Z,5.31
2018-12-10T06:25:10.709Z,5.24
2018-12-10T06:27:38.052Z,5.40
2018-12-10T06:30:06.197Z,5.47
2018-12-10T06:32:33.532Z,5.31
2018-12-10T06:35:00.757Z,5.21
2018-12-10T06:37:27.969Z,5.36
2018-12-10T06:39:55.213Z,5.28
2018-12-10T06:42:22.444Z,5.40
2018-12-10T06:44:49.693Z,5.37
2018-12-10T06:47:16.908Z,5.34
2018-12-10T06:49:44.272Z,5.37
2018-12-10T06:52:11.595Z,5.30
2018-12-10T06:54:38.912Z,5.32
2018-12-10T06:57:06.276Z,5.46
2018-12-10T06:59:33.526Z,5.42
2018-12-10T07:02:00.833Z,5.44
2018-12-10T07:04:30.097Z,5.63
2018-12-10T07:06:57.332Z,5.43
2018-12-10T07:09:24.576Z,5.42
2018-12-10T07:11:51.840Z,5.37
2018-12-10T07:14:19.048Z,5.25
2018-12-10T07:16:46.289Z,5.35
2018-12-10T07:19:13.584Z,5.39
2018-12-10T07:21:40.818Z,5.46
2018-12-10T07:24:08.016Z,5.47
2018-12-10T07:26:35.245Z,5.37
2018-12-10T07:29:03.624Z,5.39
2018-12-10T07:31:30.875Z,5.30
2018-12-10T07:33:58.084Z,5.31
2018-12-10T07:36:25.338Z,5.13
2018-12-10T07:38:52.544Z,5.27
2018-12-10T07:41:19.784Z,5.21
2018-12-10T07:43:47.008Z,5.14
2018-12-10T07:46:14.264Z,5.37
2018-12-10T07:48:41.470Z,5.28
2018-12-10T07:51:08.681Z,5.47
2018-12-10T07:53:35.900Z,5.47
2018-12-10T07:56:03.250Z,5.44
2018-12-10T07:58:33.752Z,5.37
2018-12-10T08:01:00.963Z,5.38
2018-12-10T08:03:28.188Z,5.47
2018-12-10T08:05:55.444Z,5.62
2018-12-10T08:08:22.904Z,5.71
2018-12-10T08:10:51.300Z,5.78
2018-12-10T08:13:18.660Z,5.67
2018-12-10T08:15:45.901Z,5.69
2018-12-10T08:18:13.149Z,5.53
2018-12-10T08:20:40.353Z,5.31
2018-12-10T08:23:07.592Z,5.24
2018-12-10T08:25:34.829Z,5.45
2018-12-10T08:28:03.105Z,5.55
2018-12-10T08:30:30.380Z,5.61
2018-12-10T08:32:57.616Z,5.44
2018-12-10T08:35:26.019Z,5.32
2018-12-10T08:37:53.938Z,5.43
2018-12-10T08:40:21.268Z,5.21
2018-12-10T08:42:48.612Z,5.12
2018-12-10T08:45:15.836Z,4.92
2018-12-10T08:47:44.082Z,5.19
2018-12-10T08:50:12.477Z,5.13
2018-12-10T08:52:40.120Z,5.07
2018-12-10T08:55:08.425Z,5.02
2018-12-10T08:57:35.785Z,4.98
2018-12-10T09:00:04.699Z,5.06
2018-12-10T09:02:34.072Z,4.98
2018-12-10T09:05:01.407Z,4.96
2018-12-10T09:07:28.832Z,4.98
2018-12-10T09:09:57.085Z,5.07
2018-12-10T09:12:24.340Z,4.99
2018-12-10T09:14:51.589Z,5.11
2018-12-10T09:17:18.921Z,5.31
2018-12-10T09:19:46.269Z,5.49
2018-12-10T09:22:13.736Z,5.50
2018-12-10T09:24:40.966Z,5.78
2018-12-10T09:27:08.176Z,5.79
2018-12-10T09:29:35.549Z,5.63
2018-12-10T09:32:03.225Z,5.67
2018-12-10T09:34:30.481Z,5.66
2018-12-10T09:36:57.688Z,5.42
2018-12-10T09:39:24.923Z,5.37
2018-12-10T09:41:52.124Z,5.21
2018-12-10T09:44:19.359Z,5.28
2018-12-10T09:46:46.699Z,5.12
2018-12-10T09:49:14.216Z,5.20
2018-12-10T09:51:42.936Z,5.27
2018-12-10T09:54:10.429Z,5.37
2018-12-10T09:56:37.671Z,5.39
2018-12-10T09:59:05.041Z,5.74
2018-12-10T10:01:32.412Z,5.65
2018-12-10T10:03:59.664Z,5.77
2018-12-10T10:06:26.916Z,5.79
2018-12-10T10:08:54.141Z,5.91
2018-12-10T10:11:21.388Z,5.84
2018-12-10T10:13:48.825Z,5.82
2018-12-10T10:16:16.049Z,6.08
2018-12-10T10:18:43.271Z,6.26
2018-12-10T10:21:11.468Z,6.04
2018-12-10T10:23:39.020Z,5.84
2018-12-10T10:26:06.360Z,6.01
2018-12-10T10:28:33.588Z,5.96
2018-12-10T10:31:00.952Z,6.20
2018-12-10T10:33:32.368Z,6.01
2018-12-10T10:35:57.407Z,6.06
2018-12-10T10:38:24.810Z,6.37
2018-12-10T10:40:52.175Z,6.23
2018-12-10T10:43:19.401Z,6.26
2018-12-10T10:45:46.653Z,6.41
2018-12-10T10:48:13.876Z,6.48
2018-12-10T10:50:41.108Z,6.71
2018-12-10T10:53:08.444Z,6.59
2018-12-10T10:55:35.773Z,6.76
2018-12-10T10:58:03.072Z,6.96
2018-12-10T11:00:36.062Z,7.36
2018-12-10T11:03:08.956Z,6.98
2018-12-10T11:05:36.369Z,6.83
2018-12-10T11:08:03.613Z,6.68
2018-12-10T11:10:30.838Z,6.45
2018-12-10T11:12:58.688Z,6.55
2018-12-10T11:15:25.900Z,6.34
2018-12-10T11:17:53.155Z,6.25
2018-12-10T11:20:20.380Z,5.92
2018-12-10T11:22:47.974Z,6.01
2018-12-10T11:25:15.695Z,6.12
2018-12-10T11:27:43.064Z,6.09
2018-12-10T11:30:10.280Z,6.62
2018-12-10T11:32:37.865Z,6.50
2018-12-10T11:35:05.188Z,6.28
2018-12-10T11:37:32.573Z,5.81
2018-12-10T11:39:59.901Z,5.60
2018-12-10T11:42:27.116Z,6.03
2018-12-10T11:44:54.356Z,6.14
2018-12-10T11:47:21.577Z,6.11
2018-12-10T11:49:48.949Z,6.23
2018-12-10T11:52:16.160Z,6.00
2018-12-10T11:54:43.408Z,6.23
2018-12-10T11:57:10.627Z,6.13
2018-12-10T11:59:37.861Z,6.33
2018-12-10T12:02:05.137Z,6.46
2018-12-10T12:04:32.380Z,6.32
2018-12-10T12:07:01.627Z,6.57
2018-12-10T12:09:29.219Z,6.33
2018-12-10T12:11:56.836Z,6.50
2018-12-10T12:14:24.162Z,6.37
2018-12-10T12:16:51.408Z,6.04
2018-12-10T12:19:18.736Z,6.00
2018-12-10T12:21:45.955Z,6.10
2018-12-10T12:24:13.217Z,6.05
2018-12-10T12:26:40.508Z,6.20
2018-12-10T12:29:07.763Z,6.30
2018-12-10T12:31:35.004Z,6.14
2018-12-10T12:34:02.219Z,6.15
2018-12-10T12:36:29.468Z,6.20
2018-12-10T12:38:57.602Z,6.21
2018-12-10T12:41:24.820Z,6.41
2018-12-10T12:43:52.025Z,6.18
2018-12-10T12:46:19.289Z,6.29
2018-12-10T12:48:46.493Z,6.34
2018-12-10T12:51:13.724Z,6.60
2018-12-10T12:53:40.989Z,7.05
2018-12-10T12:56:08.260Z,6.88
2018-12-10T12:58:35.473Z,6.93
2018-12-10T13:01:02.712Z,6.30
2018-12-10T13:03:29.926Z,6.52
2018-12-10T13:05:57.180Z,6.27
2018-12-10T13:08:30.958Z,6.37
2018-12-10T13:10:53.944Z,6.24
2018-12-10T13:13:21.284Z,6.38
2018-12-10T13:15:48.536Z,6.05
2018-12-10T13:18:15.758Z,5.99
2018-12-10T13:20:43.028Z,5.94
2018-12-10T13:23:10.238Z,6.14
2018-12-10T13:25:37.484Z,6.13
2018-12-10T13:28:04.690Z,6.10
2018-12-10T13:30:32.090Z,6.34
2018-12-10T13:32:59.489Z,6.26
2018-12-10T13:35:26.880Z,6.45
2018-12-10T13:37:54.441Z,6.19
2018-12-10T13:40:21.681Z,6.18
2018-12-10T13:42:49.040Z,6.25
2018-12-10T13:45:16.249Z,6.43
2018-12-10T13:47:44.745Z,6.24
2018-12-10T13:50:11.957Z,6.36
2018-12-10T13:52:39.193Z,6.32
2018-12-10T13:55:06.428Z,6.32
2018-12-10T13:57:33.667Z,6.44
2018-12-10T14:00:00.884Z,6.38
2018-12-10T14:02:30.418Z,6.37
2018-12-10T14:05:01.693Z,6.52
2018-12-10T14:07:30.368Z,6.43
2018-12-10T14:09:57.579Z,6.41
2018-12-10T14:12:24.853Z,6.44
2018-12-10T14:14:52.104Z,6.41
2018-12-10T14:17:19.447Z,6.54
2018-12-10T14:19:46.664Z,6.42
2018-12-10T14:22:13.933Z,6.45
2018-12-10T14:24:41.188Z,6.48
2018-12-10T14:27:08.477Z,6.52
2018-12-10T14:29:35.696Z,6.56
2018-12-10T14:32:03.392Z,6.64
2018-12-10T14:34:30.649Z,6.78
2018-12-10T14:36:57.858Z,6.73
2018-12-10T14:39:25.318Z,6.69
2018-12-10T14:41:52.597Z,6.65
2018-12-10T14:44:19.829Z,6.55
2018-12-10T14:46:47.037Z,6.52
2018-12-10T14:49:14.268Z,6.61
2018-12-10T14:51:41.588Z,6.57
2018-12-10T14:54:09.084Z,6.43
2018-12-10T14:56:36.300Z,6.41
2018-12-10T14:59:03.576Z,6.41
2018-12-10T15:01:30.916Z,6.42
2018-12-10T15:03:58.152Z,6.38
2018-12-10T15:06:26.492Z,6.40
2018-12-10T15:08:53.738Z,6.42
2018-12-10T15:11:21.017Z,6.57
2018-12-10T15:13:48.260Z,6.59
2018-12-10T15:16:15.469Z,6.39
2018-12-10T15:18:43.206Z,6.50
2018-12-10T15:21:10.536Z,6.56
2018-12-10T15:23:37.748Z,6.75
2018-12-10T15:26:04.985Z,6.72
2018-12-10T15:28:32.211Z,6.46
2018-12-10T15:30:59.556Z,6.51
2018-12-10T15:33:26.776Z,6.48
2018-12-10T15:35:54.009Z,6.34
2018-12-10T15:38:21.217Z,6.41
2018-12-10T15:40:48.489Z,6.22
2018-12-10T15:43:15.723Z,6.27
2018-12-10T15:45:42.960Z,6.29
2018-12-10T15:48:10.220Z,6.23
2018-12-10T15:50:37.464Z,6.35
2018-12-10T15:53:04.692Z,6.36
2018-12-10T15:55:32.048Z,6.45
2018-12-10T15:57:59.296Z,6.57
2018-12-10T16:00:26.511Z,6.65
2018-12-10T16:02:53.750Z,6.56
2018-12-10T16:05:20.948Z,6.59
2018-12-10T16:07:48.188Z,6.70
2018-12-10T16:10:15.424Z,6.65
2018-12-10T16:12:42.669Z,6.67
2018-12-10T16:15:09.891Z,6.73
2018-12-10T16:17:37.354Z,6.57
2018-12-10T16:20:06.309Z,6.58
2018-12-10T16:22:33.535Z,6.51
2018-12-10T16:25:00.760Z,6.55
2018-12-10T16:27:30.096Z,6.54
2018-12-10T16:29:58.421Z,6.54
2018-12-10T16:32:25.676Z,6.52
2018-12-10T16:34:52.945Z,6.62
2018-12-10T16:37:20.308Z,6.50
2018-12-10T16:39:47.586Z,6.58
2018-12-10T16:42:14.829Z,6.64
2018-12-10T16:44:42.094Z,6.43
2018-12-10T16:47:09.360Z,6.48
2018-12-10T16:49:36.601Z,6.47
2018-12-10T16:52:04.122Z,6.49
2018-12-10T16:54:31.334Z,6.58
2018-12-10T16:56:59.888Z,6.64
2018-12-10T16:59:27.229Z,6.39
2018-12-10T17:01:54.444Z,6.42
2018-12-10T17:04:21.656Z,6.48
2018-12-10T17:06:49.022Z,6.53
2018-12-10T17:09:16.290Z,6.41
2018-12-10T17:11:43.862Z,6.36
2018-12-10T17:14:11.421Z,6.28
2018-12-10T17:16:39.865Z,6.18
2018-12-10T17:19:07.091Z,6.19
2018-12-10T17:21:34.647Z,6.17
2018-12-10T17:24:01.921Z,6.22
2018-12-10T17:26:29.264Z,6.19
2018-12-10T17:28:56.485Z,6.09
2018-12-10T17:31:23.959Z,6.14
2018-12-10T17:33:51.460Z,6.11
2018-12-10T17:36:20.828Z,6.11
2018-12-10T17:38:48.072Z,6.09
2018-12-10T17:41:15.329Z,6.10
2018-12-10T17:43:42.552Z,6.06
2018-12-10T17:46:09.784Z,5.98
2018-12-10T17:48:37.072Z,6.02
2018-12-10T17:51:04.304Z,5.98
2018-12-10T17:53:31.756Z,6.00
2018-12-10T17:56:00.036Z,5.97
2018-12-10T17:58:27.292Z,6.02
2018-12-10T18:00:55.648Z,5.96
2018-12-10T18:03:24.087Z,5.93
2018-12-10T18:05:51.310Z,5.88
2018-12-10T18:08:18.569Z,5.90
2018-12-10T18:10:45.776Z,5.88
2018-12-10T18:13:13.010Z,5.91
2018-12-10T18:15:40.221Z,5.89
2018-12-10T18:18:07.459Z,5.92
2018-12-10T18:20:34.742Z,5.89
2018-12-10T18:23:02.200Z,5.99
2018-12-10T18:25:29.425Z,5.93
2018-12-10T18:27:56.866Z,5.84
2018-12-10T18:30:24.085Z,5.96
2018-12-10T18:32:51.325Z,5.84
2018-12-10T18:35:18.528Z,5.87
2018-12-10T18:37:45.785Z,5.79
2018-12-10T18:40:13.171Z,5.77
2018-12-10T18:42:40.528Z,5.82
2018-12-10T18:45:11.179Z,5.85
2018-12-10T18:47:38.459Z,5.83
2018-12-10T18:50:05.870Z,5.69
2018-12-10T18:52:33.248Z,5.56
2018-12-10T18:55:00.464Z,5.59
2018-12-10T18:57:27.701Z,5.72
2018-12-10T18:59:55.062Z,5.62
2018-12-10T19:02:22.376Z,5.66
2018-12-10T19:04:49.596Z,5.65
2018-12-10T19:07:16.837Z,5.61
2018-12-10T19:09:44.068Z,5.60
2018-12-10T19:12:18.320Z,5.52
2018-12-10T19:14:45.697Z,5.56
2018-12-10T19:17:12.969Z,5.55
2018-12-10T19:19:40.504Z,5.52
2018-12-10T19:22:08.249Z,5.59
2018-12-10T19:24:35.842Z,5.56
2018-12-10T19:27:03.204Z,5.52
2018-12-10T19:29:30.497Z,5.59
2018-12-10T19:31:57.749Z,5.43
2018-12-10T19:34:24.992Z,5.48
2018-12-10T19:36:52.323Z,5.47
2018-12-10T19:39:19.600Z,5.44
2018-12-10T19:41:47.696Z,5.45
2018-12-10T19:44:14.979Z,5.51
2018-12-10T19:46:42.232Z,5.51
2018-12-10T19:49:09.473Z,5.38
2018-12-10T19:51:36.870Z,5.41
2018-12-10T19:54:04.132Z,5.42
2018-12-10T19:56:31.436Z,5.40
2018-12-10T19:58:58.846Z,5.55
2018-12-10T20:01:26.138Z,5.48
2018-12-10T20:03:53.606Z,5.56
2018-12-10T20:06:26.604Z,5.51
2018-12-10T20:08:53.885Z,5.54
2018-12-10T20:11:21.130Z,5.66
2018-12-10T20:13:48.439Z,5.58
2018-12-10T20:16:15.665Z,5.63
2018-12-10T20:18:43.277Z,5.81
2018-12-10T20:21:10.502Z,5.93
2018-12-10T20:23:37.744Z,6.02
2018-12-10T20:26:05.152Z,5.85
2018-12-10T20:28:33.586Z,5.95
2018-12-10T20:31:00.914Z,5.83
2018-12-10T20:33:28.137Z,5.68
2018-12-10T20:35:55.505Z,5.77
2018-12-10T20:38:24.840Z,5.51
2018-12-10T20:40:52.077Z,5.78
2018-12-10T20:43:19.346Z,5.84
2018-12-10T20:45:46.768Z,5.81
2018-12-10T20:48:14.005Z,5.72
2018-12-10T20:50:41.209Z,5.86
2018-12-10T20:53:08.583Z,5.85
2018-12-10T20:55:35.837Z,5.83
2018-12-10T20:58:04.445Z,5.77
2018-12-10T21:00:32.850Z,5.85
2018-12-10T21:03:00.105Z,5.99
2018-12-10T21:05:27.322Z,5.89
2018-12-10T21:07:54.554Z,5.78
2018-12-10T21:10:21.844Z,5.84
2018-12-10T21:12:49.064Z,5.72
2018-12-10T21:15:16.292Z,5.76
2018-12-10T21:17:43.503Z,5.78
2018-12-10T21:20:10.729Z,5.82
2018-12-10T21:22:38.112Z,5.93
2018-12-10T21:25:05.704Z,5.93
2018-12-10T21:27:32.913Z,5.74
2018-12-10T21:30:00.137Z,5.75
2018-12-10T21:32:27.509Z,5.87
2018-12-10T21:34:54.728Z,5.85
2018-12-10T21:37:21.936Z,5.83
2018-12-10T21:39:49.152Z,5.67
2018-12-10T21:42:16.368Z,5.83
2018-12-10T21:44:43.746Z,5.75
2018-12-10T21:47:10.949Z,5.80
2018-12-10T21:49:38.180Z,5.74
2018-12-10T21:52:05.393Z,5.69
2018-12-10T21:54:32.604Z,5.57
2018-12-10T21:57:03.568Z,5.56
2018-12-10T21:59:32.309Z,5.58
2018-12-10T22:01:59.534Z,5.49
2018-12-10T22:04:26.875Z,5.44
2018-12-10T22:06:54.101Z,5.49
2018-12-10T22:09:21.312Z,5.49
2018-12-10T22:11:48.528Z,5.54
2018-12-10T22:14:15.786Z,5.46
2018-12-10T22:16:42.992Z,5.43
2018-12-10T22:19:10.244Z,5.54
2018-12-10T22:21:37.469Z,5.60
2018-12-10T22:24:04.704Z,5.55
2018-12-10T22:26:31.907Z,5.58
2018-12-10T22:28:59.136Z,5.64
2018-12-10T22:31:26.332Z,5.47
2018-12-10T22:33:53.600Z,5.56
2018-12-10T22:36:20.893Z,5.68
2018-12-10T22:38:48.144Z,5.64
2018-12-10T22:41:15.377Z,5.53
2018-12-10T22:43:42.592Z,5.54
2018-12-10T22:46:09.808Z,5.58
2018-12-10T22:48:37.060Z,5.51
2018-12-10T22:51:05.296Z,5.65
2018-12-10T22:53:32.495Z,5.63
2018-12-10T22:55:59.828Z,5.50
2018-12-10T22:58:27.039Z,5.58
2018-12-10T23:00:54.383Z,5.71
2018-12-10T23:03:22.368Z,5.62
2018-12-10T23:05:50.288Z,5.52
2018-12-10T23:08:17.548Z,5.62
2018-12-10T23:10:44.760Z,5.63
2018-12-10T23:13:12.089Z,5.46
2018-12-10T23:15:39.316Z,5.58
2018-12-10T23:18:06.536Z,5.68
2018-12-10T23:20:33.877Z,5.81
2018-12-10T23:23:01.116Z,5.82
2018-12-10T23:25:28.555Z,5.71
2018-12-10T23:27:55.768Z,5.67
2018-12-10T23:30:23.004Z,5.72
2018-12-10T23:32:50.206Z,5.69
2018-12-10T23:35:19.558Z,5.65
2018-12-10T23:37:47.797Z,5.76
2018-12-10T23:40:16.087Z,5.69
2018-12-10T23:42:49.104Z,5.74
2018-12-10T23:45:17.320Z,5.74
2018-12-10T23:47:44.546Z,5.69
2018-12-10T23:50:13.921Z,5.61
2018-12-10T23:52:41.174Z,5.62
2018-12-10T23:55:08.716Z,5.59
2018-12-10T23:57:35.953Z,5.58
